Time;durP1;ratioP1;P1;durP2;ratioP2;P2;SDS_P1;SDS_P2;PMS_P1;PMS_P2;Temp;Humidity;BMP_temperature;BMP_pressure;BME280_temperature;BME280_humidity;BME280_pressure;Samples;Min_cycle;Max_cycle;Signal;HPM_P1;HPM_P2
2022/03/17 00:00:12;;;;;;;38.20;26.10;;;9.20;1.00;;;;;;7363752;19;20082;-62
2022/03/17 00:02:42;;;;;;;38.10;26.55;;;9.10;1.00;;;;;;7357980;19;20011;-62
2022/03/17 00:05:14;;;;;;;40.63;27.15;;;9.10;1.00;;;;;;7358497;19;20106;-62
2022/03/17 00:07:46;;;;;;;36.92;25.80;;;9.20;1.00;;;;;;7363824;19;20010;-62
2022/03/17 00:10:18;;;;;;;36.65;26.50;;;9.10;1.00;;;;;;7362531;19;20007;-62
2022/03/17 00:12:49;;;;;;;35.78;26.02;;;9.10;1.00;;;;;;7376764;19;20081;-62
2022/03/17 00:15:22;;;;;;;40.20;27.45;;;9.20;1.00;;;;;;7358977;19;20014;-62
2022/03/17 00:17:53;;;;;;;37.63;25.88;;;9.10;1.00;;;;;;7362656;19;20436;-62
2022/03/17 00:20:23;;;;;;;40.47;26.13;;;9.10;1.00;;;;;;7363088;19;20028;-61
2022/03/17 00:22:53;;;;;;;40.83;28.42;;;9.20;1.00;;;;;;7355756;19;20467;-61
2022/03/17 00:25:23;;;;;;;39.13;27.10;;;9.10;1.00;;;;;;7362284;19;20015;-62
2022/03/17 00:27:53;;;;;;;36.40;26.52;;;9.10;1.00;;;;;;7390785;19;20014;-61
2022/03/17 00:30:25;;;;;;;40.45;26.88;;;9.10;1.00;;;;;;7370369;19;20007;-61
2022/03/17 00:32:55;;;;;;;38.03;26.98;;;9.10;1.00;;;;;;7359487;19;20020;-62
2022/03/17 00:35:38;;;;;;;39.33;27.30;;;9.00;1.00;;;;;;7366381;19;20094;-62
2022/03/17 00:38:11;;;;;;;41.65;26.98;;;9.00;1.00;;;;;;7369081;19;20015;-62
2022/03/17 00:40:42;;;;;;;38.33;27.05;;;9.00;1.00;;;;;;7370273;19;20010;-62
2022/03/17 00:43:14;;;;;;;39.22;26.92;;;9.00;1.00;;;;;;7362104;19;20449;-63
2022/03/17 00:45:48;;;;;;;40.13;27.83;;;9.00;1.00;;;;;;7387227;19;20025;-63
2022/03/17 00:48:18;;;;;;;40.17;27.92;;;9.00;1.00;;;;;;7368474;19;20006;-62
2022/03/17 00:50:48;;;;;;;40.88;27.83;;;9.00;1.00;;;;;;7368126;19;20126;-62
2022/03/17 00:53:18;;;;;;;41.50;28.20;;;9.00;1.00;;;;;;7360171;19;20115;-63
2022/03/17 00:55:48;;;;;;;39.05;28.00;;;9.00;1.00;;;;;;7367692;19;20003;-62
2022/03/17 00:58:18;;;;;;;43.05;28.80;;;8.90;1.00;;;;;;7367601;19;20021;-63
2022/03/17 01:00:50;;;;;;;39.58;28.30;;;9.00;1.00;;;;;;7391272;19;20049;-62
2022/03/17 01:03:20;;;;;;;40.25;28.23;;;8.90;1.00;;;;;;7359714;19;20010;-63
2022/03/17 01:05:51;;;;;;;40.20;28.10;;;9.00;1.00;;;;;;7366657;19;20018;-61
2022/03/17 01:08:21;;;;;;;43.47;27.85;;;9.00;1.00;;;;;;7368491;19;20474;-63
2022/03/17 01:10:52;;;;;;;43.20;29.15;;;9.00;1.00;;;;;;7369852;19;20002;-62
2022/03/17 01:13:23;;;;;;;42.45;27.80;;;8.90;1.00;;;;;;7358437;19;20015;-62
2022/03/17 01:15:56;;;;;;;42.70;27.73;;;8.90;1.00;;;;;;7389090;19;20028;-63
2022/03/17 01:18:26;;;;;;;38.80;27.23;;;8.90;1.00;;;;;;7368122;19;20011;-61
2022/03/17 01:20:57;;;;;;;42.78;28.00;;;8.90;1.00;;;;;;7367935;19;20537;-62
2022/03/17 01:23:28;;;;;;;44.13;27.08;;;8.90;1.00;;;;;;7359823;19;20014;-61
2022/03/17 01:25:57;;;;;;;40.35;27.02;;;8.90;1.00;;;;;;7367440;19;20078;-62
2022/03/17 01:28:30;;;;;;;42.72;28.17;;;8.90;1.00;;;;;;7367238;19;20017;-61
2022/03/17 01:31:02;;;;;;;43.13;28.63;;;8.90;1.00;;;;;;7390422;19;20018;-62
2022/03/17 01:33:32;;;;;;;40.05;27.10;;;8.90;1.00;;;;;;7358216;19;20081;-62
2022/03/17 01:36:02;;;;;;;40.47;27.05;;;8.80;1.00;;;;;;7365251;19;20022;-64
2022/03/17 01:38:35;;;;;;;41.33;26.85;;;8.90;1.00;;;;;;7366487;19;20018;-62
2022/03/17 01:41:05;;;;;;;40.03;26.88;;;8.80;1.00;;;;;;7366822;19;20378;-63
2022/03/17 01:43:35;;;;;;;43.00;26.88;;;8.80;1.00;;;;;;7358532;19;20021;-63
2022/03/17 01:46:09;;;;;;;41.70;28.42;;;8.80;1.00;;;;;;7372827;19;20077;-62
2022/03/17 01:48:40;;;;;;;40.33;27.25;;;8.80;1.00;;;;;;7389505;19;20098;-62
2022/03/17 01:51:10;;;;;;;39.45;28.00;;;8.80;1.00;;;;;;7366318;19;20022;-62
2022/03/17 01:53:41;;;;;;;39.55;27.50;;;8.80;1.00;;;;;;7356607;19;20014;-62
2022/03/17 01:56:11;;;;;;;42.40;28.13;;;8.70;1.00;;;;;;7366640;19;20530;-62
2022/03/17 01:58:41;;;;;;;41.25;28.50;;;8.70;1.00;;;;;;7367241;19;20014;-63
2022/03/17 02:01:14;;;;;;;43.10;27.88;;;8.70;1.00;;;;;;7365185;19;20049;-64
2022/03/17 02:03:47;;;;;;;39.55;27.15;;;8.70;1.00;;;;;;7378899;19;20011;-62
2022/03/17 02:06:17;;;;;;;38.38;26.85;;;8.70;1.00;;;;;;7365476;19;20034;-63
2022/03/17 02:08:47;;;;;;;41.88;28.98;;;8.60;1.00;;;;;;7365909;19;20017;-62
2022/03/17 02:14:00;;;;;;;43.53;28.00;;;8.60;1.00;;;;;;7356155;19;20011;-64
2022/03/17 02:16:33;;;;;;;40.30;27.27;;;8.60;1.00;;;;;;7365000;19;20014;-62
2022/03/17 02:19:03;;;;;;;43.80;28.02;;;8.50;1.00;;;;;;7388483;19;20018;-62
2022/03/17 02:21:35;;;;;;;36.95;26.35;;;8.50;1.00;;;;;;7367263;19;20844;-61
2022/03/17 02:26:51;;;;;;;39.85;26.83;;;8.60;1.00;;;;;;7365022;19;20474;-61
2022/03/17 02:29:21;;;;;;;42.78;27.52;;;8.60;1.00;;;;;;7365506;19;20016;-62
2022/03/17 02:31:51;;;;;;;40.17;27.35;;;8.70;1.00;;;;;;7366339;19;20007;-62
2022/03/17 02:34:22;;;;;;;41.90;27.13;;;8.70;1.00;;;;;;7355182;19;20053;-62
2022/03/17 02:36:54;;;;;;;39.47;27.08;;;8.70;1.00;;;;;;7387163;19;20015;-61
2022/03/17 02:39:26;;;;;;;40.15;26.52;;;8.60;1.00;;;;;;7366417;19;20010;-62
2022/03/17 02:41:57;;;;;;;40.15;27.05;;;8.70;1.00;;;;;;7365549;19;20070;-62
2022/03/17 02:44:27;;;;;;;43.03;27.38;;;8.70;1.00;;;;;;7357203;19;20006;-62
2022/03/17 02:46:56;;;;;;;41.05;26.58;;;8.70;1.00;;;;;;7364586;19;20028;-62
2022/03/17 02:49:28;;;;;;;42.30;27.42;;;8.70;1.00;;;;;;7365679;19;20019;-63
2022/03/17 02:51:59;;;;;;;41.05;26.13;;;8.70;1.00;;;;;;7387189;19;20017;-61
2022/03/17 02:54:35;;;;;;;;;;;8.70;1.00;;;;;;7357081;19;20010;-61
2022/03/17 02:57:08;;;;;;;43.22;27.15;;;8.70;1.00;;;;;;7363022;19;19926;-62
2022/03/17 02:59:38;;;;;;;42.85;26.80;;;8.70;1.00;;;;;;7364921;19;20008;-63
2022/03/17 03:02:08;;;;;;;39.90;26.05;;;8.70;1.00;;;;;;7361682;19;20052;-62
2022/03/17 03:04:38;;;;;;;41.25;27.05;;;8.60;1.00;;;;;;7358319;19;20086;-62
2022/03/17 03:07:08;;;;;;;40.78;26.35;;;8.60;1.00;;;;;;7364201;19;20490;-63
2022/03/17 03:09:41;;;;;;;40.75;27.02;;;8.60;1.00;;;;;;7386719;19;20108;-62
2022/03/17 03:12:12;;;;;;;38.72;25.80;;;8.60;1.00;;;;;;7360439;19;20074;-62
2022/03/17 03:14:41;;;;;;;39.67;25.98;;;8.50;1.00;;;;;;7357219;19;20021;-63
2022/03/17 03:17:11;;;;;;;41.33;27.33;;;8.60;1.00;;;;;;7362994;19;20020;-60
2022/03/17 03:19:41;;;;;;;43.75;27.15;;;8.60;1.00;;;;;;7364530;19;20031;-62
2022/03/17 03:22:12;;;;;;;46.70;26.77;;;8.60;1.00;;;;;;7361362;19;20317;-63
2022/03/17 03:24:45;;;;;;;40.95;26.35;;;8.60;1.00;;;;;;7380775;19;20018;-62
2022/03/17 03:27:15;;;;;;;39.30;26.08;;;8.60;1.00;;;;;;7363726;19;20003;-62
2022/03/17 03:29:47;;;;;;;41.53;27.10;;;8.60;1.00;;;;;;7363483;19;20434;-62
2022/03/17 03:32:20;;;;;;;38.25;25.25;;;8.60;1.00;;;;;;7357989;19;20021;-63
2022/03/17 03:34:50;;;;;;;41.00;26.25;;;8.50;1.00;;;;;;7358724;19;20019;-63
2022/03/17 03:37:23;;;;;;;42.78;27.77;;;8.50;1.00;;;;;;7384587;19;20019;-62
2022/03/17 03:39:58;;;;;;;43.13;27.65;;;8.50;1.00;;;;;;7364135;19;20070;-62
2022/03/17 03:42:28;;;;;;;40.58;27.15;;;8.50;1.00;;;;;;7358420;19;20027;-64
2022/03/17 03:44:58;;;;;;;42.75;26.92;;;8.50;1.00;;;;;;7359620;19;20014;-62
2022/03/17 03:47:28;;;;;;;42.72;27.55;;;8.50;1.00;;;;;;7362206;19;20606;-62
2022/03/17 03:49:58;;;;;;;39.65;26.80;;;8.50;1.00;;;;;;7363367;19;20007;-63
2022/03/17 03:52:28;;;;;;;39.83;26.50;;;8.50;1.00;;;;;;7359060;19;20093;-63
2022/03/17 03:55:00;;;;;;;42.65;27.17;;;8.50;1.00;;;;;;7377702;19;20018;-62
2022/03/17 03:57:34;;;;;;;41.00;26.40;;;8.50;1.00;;;;;;7362494;19;20022;-62
2022/03/17 04:00:11;;;;;;;42.28;27.77;;;8.50;1.00;;;;;;7366810;19;20015;-61
2022/03/17 04:02:43;;;;;;;40.70;26.92;;;8.40;1.00;;;;;;7366506;19;20010;-62
2022/03/17 04:05:13;;;;;;;45.58;27.45;;;8.40;1.00;;;;;;7366489;19;20020;-62
2022/03/17 04:07:44;;;;;;;38.88;25.92;;;8.40;1.00;;;;;;7369795;19;20074;-62
2022/03/17 04:10:16;;;;;;;41.03;27.00;;;8.40;1.00;;;;;;7392477;19;20526;-61
2022/03/17 04:12:46;;;;;;;43.47;27.42;;;8.40;1.00;;;;;;7364828;19;20489;-62
2022/03/17 04:15:16;;;;;;;41.22;26.23;;;8.30;1.00;;;;;;7366226;19;20018;-62
2022/03/17 04:17:46;;;;;;;40.28;26.40;;;8.40;1.00;;;;;;7369188;19;20050;-62
2022/03/17 04:20:16;;;;;;;41.00;26.15;;;8.40;1.00;;;;;;7370204;19;20018;-62
2022/03/17 04:22:45;;;;;;;42.80;27.73;;;8.30;1.00;;;;;;7365140;19;20082;-62
2022/03/17 04:25:18;;;;;;;40.00;25.73;;;8.30;1.00;;;;;;7387224;19;20014;-62
2022/03/17 04:27:48;;;;;;;43.63;27.10;;;8.30;1.00;;;;;;7369861;19;20013;-62
2022/03/17 04:30:18;;;;;;;40.75;26.73;;;8.20;1.00;;;;;;7368610;19;20020;-62
2022/03/17 04:32:48;;;;;;;40.08;27.42;;;8.20;1.00;;;;;;7362828;19;20010;-62
2022/03/17 04:35:18;;;;;;;44.22;28.30;;;8.20;1.00;;;;;;7367267;19;20010;-62
2022/03/17 04:37:47;;;;;;;40.85;26.83;;;8.20;1.00;;;;;;7368600;19;20018;-62
2022/03/17 04:40:20;;;;;;;40.85;25.73;;;8.20;1.00;;;;;;7391591;19;20018;-62
2022/03/17 04:42:53;;;;;;;40.90;25.95;;;8.20;1.00;;;;;;7361280;19;20015;-62
2022/03/17 04:45:23;;;;;;;39.80;25.88;;;8.10;1.00;;;;;;7367146;19;20014;-62
2022/03/17 04:47:53;;;;;;;41.72;26.38;;;8.10;1.00;;;;;;7367194;19;20082;-62
2022/03/17 04:50:23;;;;;;;38.70;25.63;;;8.20;1.00;;;;;;7367693;19;20022;-62
2022/03/17 04:55:38;;;;;;;38.97;25.98;;;8.20;1.00;;;;;;7362447;19;20078;-62
2022/03/17 04:58:07;;;;;;;41.95;27.95;;;8.20;1.00;;;;;;7389985;19;20638;-62
2022/03/17 05:00:37;;;;;;;42.60;28.10;;;8.10;1.00;;;;;;7367987;19;20476;-62
2022/03/17 05:03:07;;;;;;;39.15;24.67;;;8.10;1.00;;;;;;7365875;19;20036;-62
2022/03/17 05:05:37;;;;;;;42.08;25.80;;;8.10;1.00;;;;;;7362086;19;20015;-62
2022/03/17 05:08:08;;;;;;;42.13;27.42;;;8.10;1.00;;;;;;7367428;19;20013;-62
2022/03/17 05:10:41;;;;;;;43.42;25.58;;;8.10;1.00;;;;;;7368147;19;20420;-62
2022/03/17 05:13:13;;;;;;;42.30;27.58;;;8.10;1.00;;;;;;7386893;19;20041;-62
2022/03/17 05:15:44;;;;;;;43.03;27.45;;;8.10;1.00;;;;;;7360237;19;20082;-63
2022/03/17 05:18:13;;;;;;;41.67;27.83;;;8.10;1.00;;;;;;7366819;19;20007;-62
2022/03/17 05:20:44;;;;;;;42.28;27.25;;;8.10;1.00;;;;;;7368251;19;20010;-62
2022/03/17 05:23:16;;;;;;;45.20;28.77;;;8.10;1.00;;;;;;7365644;19;20011;-63
2022/03/17 05:25:49;;;;;;;41.33;26.58;;;8.10;1.00;;;;;;7359795;19;20015;-62
2022/03/17 05:28:23;;;;;;;42.95;26.85;;;8.00;1.00;;;;;;7389404;19;20538;-61
2022/03/17 05:30:53;;;;;;;41.85;26.92;;;8.00;1.00;;;;;;7368095;19;20021;-61
2022/03/17 05:33:23;;;;;;;41.83;26.48;;;8.00;1.00;;;;;;7363922;19;20044;-62
2022/03/17 05:35:56;;;;;;;43.97;27.05;;;8.00;1.00;;;;;;7362233;19;20089;-61
2022/03/17 05:38:25;;;;;;;46.58;27.33;;;8.00;1.00;;;;;;7366871;19;20688;-62
2022/03/17 05:40:58;;;;;;;39.95;26.73;;;8.00;1.00;;;;;;7368842;19;20015;-63
2022/03/17 05:43:28;;;;;;;43.47;27.80;;;8.00;1.00;;;;;;7365325;19;20396;-63
2022/03/17 05:45:58;;;;;;;42.08;26.92;;;8.00;1.00;;;;;;7382822;19;20359;-61
2022/03/17 05:48:28;;;;;;;37.60;25.40;;;8.00;1.00;;;;;;7365946;19;20097;-62
2022/03/17 05:50:59;;;;;;;41.13;26.73;;;8.00;1.00;;;;;;7367911;19;20011;-61
2022/03/17 05:53:28;;;;;;;39.63;25.38;;;8.00;1.00;;;;;;7363278;19;20462;-64
2022/03/17 05:56:01;;;;;;;40.30;25.60;;;8.00;1.00;;;;;;7361256;19;20028;-62
2022/03/17 05:58:31;;;;;;;43.30;26.23;;;8.00;1.00;;;;;;7367249;19;20080;-63
2022/03/17 06:01:01;;;;;;;43.10;26.23;;;8.00;1.00;;;;;;7388551;19;20027;-62
2022/03/17 06:03:31;;;;;;;40.78;25.67;;;8.10;1.00;;;;;;7363562;19;20097;-61
2022/03/17 06:06:03;;;;;;;39.10;25.65;;;8.10;1.00;;;;;;7362471;19;20013;-61
2022/03/17 06:08:33;;;;;;;42.78;27.73;;;8.10;1.00;;;;;;7366057;19;20412;-63
2022/03/17 06:11:06;;;;;;;43.00;26.65;;;8.10;1.00;;;;;;7367478;19;20015;-62
2022/03/17 06:13:37;;;;;;;43.67;26.70;;;8.10;1.00;;;;;;7362985;19;20022;-61
2022/03/17 06:16:07;;;;;;;45.97;27.48;;;8.20;1.00;;;;;;7383654;19;20011;-62
2022/03/17 06:18:37;;;;;;;42.00;26.85;;;8.20;1.00;;;;;;7365648;19;20014;-62
2022/03/17 06:21:08;;;;;;;41.80;25.88;;;8.20;1.00;;;;;;7366188;19;20036;-62
2022/03/17 06:23:37;;;;;;;45.90;27.70;;;8.20;1.00;;;;;;7362658;19;20054;-62
2022/03/17 06:26:10;;;;;;;40.47;24.95;;;8.30;1.00;;;;;;7361348;19;20089;-64
2022/03/17 06:28:40;;;;;;;41.90;26.40;;;8.20;1.00;;;;;;7366248;19;20107;-62
2022/03/17 06:31:10;;;;;;;43.60;26.75;;;8.20;1.00;;;;;;7387827;19;20086;-62
2022/03/17 06:33:40;;;;;;;45.58;25.33;;;8.20;1.00;;;;;;7361350;19;20125;-62
2022/03/17 06:36:10;;;;;;;44.90;26.92;;;8.30;1.00;;;;;;7359978;19;20007;-62
2022/03/17 06:38:40;;;;;;;43.15;26.38;;;8.30;1.00;;;;;;7364233;19;20013;-61
2022/03/17 06:41:13;;;;;;;43.33;26.92;;;8.30;1.00;;;;;;7364225;19;20018;-62
2022/03/17 06:43:43;;;;;;;38.60;26.02;;;8.30;1.00;;;;;;7360201;19;20021;-61
2022/03/17 06:46:13;;;;;;;40.42;25.85;;;8.30;1.00;;;;;;7381114;19;20019;-62
2022/03/17 06:48:42;;;;;;;44.45;27.23;;;8.30;1.00;;;;;;7362380;19;20010;-62
2022/03/17 06:51:13;;;;;;;44.25;25.83;;;8.40;1.00;;;;;;7364052;19;20018;-62
2022/03/17 06:53:43;;;;;;;43.10;26.42;;;8.40;1.00;;;;;;7360153;19;20026;-62
2022/03/17 06:56:18;;;;;;;39.70;25.60;;;8.40;1.00;;;;;;7360533;19;20563;-61
2022/03/17 06:58:48;;;;;;;41.58;25.48;;;8.50;1.00;;;;;;7364404;19;20101;-62
2022/03/17 07:01:19;;;;;;;40.63;26.08;;;8.50;1.00;;;;;;7385805;19;20010;-62
2022/03/17 07:03:49;;;;;;;41.42;26.38;;;8.50;1.00;;;;;;7361672;19;20003;-63
2022/03/17 07:06:19;;;;;;;45.13;25.80;;;8.60;1.00;;;;;;7361683;19;20002;-61
2022/03/17 07:08:49;;;;;;;42.78;26.35;;;8.60;1.00;;;;;;7361278;19;20022;-62
2022/03/17 07:11:22;;;;;;;48.88;29.20;;;8.60;1.00;;;;;;7358346;19;20474;-61
2022/03/17 07:13:52;;;;;;;41.75;26.77;;;8.60;1.00;;;;;;7356119;19;20352;-61
2022/03/17 07:16:22;;;;;;;37.97;26.83;;;8.60;1.00;;;;;;7377359;19;20014;-62
2022/03/17 07:18:52;;;;;;;45.50;26.17;;;8.70;1.00;;;;;;7360067;19;20003;-61
2022/03/17 07:21:22;;;;;;;40.08;25.35;;;8.70;1.00;;;;;;7359341;19;20010;-61
2022/03/17 07:23:52;;;;;;;42.90;25.98;;;8.70;1.00;;;;;;7359716;19;20085;-62
2022/03/17 07:26:26;;;;;;;38.78;25.20;;;8.70;1.00;;;;;;7360318;19;20015;-62
2022/03/17 07:28:56;;;;;;;46.17;27.08;;;8.70;1.00;;;;;;7363333;19;20031;-62
2022/03/17 07:31:27;;;;;;;38.47;25.52;;;8.80;1.00;;;;;;7374813;19;20014;-62
2022/03/17 07:33:57;;;;;;;41.63;26.63;;;8.80;1.00;;;;;;7379538;19;20014;-62
2022/03/17 07:36:27;;;;;;;44.17;26.80;;;8.80;1.00;;;;;;7360051;19;20034;-62
2022/03/17 07:38:57;;;;;;;43.67;26.10;;;8.80;1.00;;;;;;7362351;19;20006;-62
2022/03/17 07:41:30;;;;;;;42.25;26.30;;;8.90;1.00;;;;;;7361835;19;20477;-61
2022/03/17 07:44:10;;;;;;;59.35;30.17;;;9.00;1.00;;;;;;7354480;19;20010;-61
2022/03/17 07:46:40;;;;;;;42.95;27.15;;;8.90;1.00;;;;;;7362198;19;20471;-62
2022/03/17 07:49:10;;;;;;;41.50;26.52;;;9.10;1.00;;;;;;7384875;19;20013;-62
2022/03/17 07:51:42;;;;;;;40.58;27.23;;;9.10;1.00;;;;;;7362048;19;20010;-61
2022/03/17 07:54:12;;;;;;;43.75;27.33;;;9.10;1.00;;;;;;7353829;19;20031;-62
2022/03/17 07:56:45;;;;;;;41.88;27.38;;;9.20;1.00;;;;;;7359185;19;20003;-62
2022/03/17 07:59:16;;;;;;;45.30;26.25;;;9.10;1.00;;;;;;7362233;19;20027;-61
2022/03/17 08:01:46;;;;;;;44.33;26.95;;;9.00;1.00;;;;;;7362700;19;20103;-61
2022/03/17 08:04:16;;;;;;;43.83;25.98;;;9.10;1.00;;;;;;7375474;19;20498;-61
2022/03/17 08:06:46;;;;;;;44.70;28.70;;;9.20;1.00;;;;;;7361358;19;20006;-61
2022/03/17 08:09:16;;;;;;;45.72;28.50;;;9.00;1.00;;;;;;7362610;19;20070;-61
2022/03/17 08:11:49;;;;;;;54.60;28.17;;;9.20;1.00;;;;;;7361184;19;20078;-62
2022/03/17 08:14:19;;;;;;;44.58;28.35;;;9.30;1.00;;;;;;7353444;19;20477;-63
2022/03/17 08:16:49;;;;;;;49.00;28.30;;;9.30;1.00;;;;;;7360079;19;20018;-63
2022/03/17 08:19:19;;;;;;;45.30;28.88;;;9.30;1.00;;;;;;7383920;19;21087;-62
2022/03/17 08:21:49;;;;;;;47.67;29.50;;;9.40;1.00;;;;;;7362092;19;20003;-62
2022/03/17 08:24:19;;;;;;;53.50;28.77;;;9.40;1.00;;;;;;7352499;19;20032;-62
2022/03/17 08:26:52;;;;;;;49.03;28.55;;;9.40;1.00;;;;;;7361023;19;20015;-62
2022/03/17 08:29:22;;;;;;;45.15;28.02;;;9.40;1.00;;;;;;7362197;19;20518;-62
2022/03/17 08:31:52;;;;;;;46.15;27.77;;;9.40;1.00;;;;;;7362067;19;20015;-61
2022/03/17 08:34:22;;;;;;;52.13;30.17;;;9.40;1.00;;;;;;7374816;19;20022;-62
2022/03/17 08:36:54;;;;;;;47.88;28.38;;;9.50;1.00;;;;;;7359599;19;20011;-62
2022/03/17 08:39:24;;;;;;;44.38;29.02;;;9.50;1.00;;;;;;7361327;19;20014;-63
2022/03/17 08:41:57;;;;;;;47.63;28.75;;;9.50;1.00;;;;;;7361530;19;20010;-63
2022/03/17 08:44:27;;;;;;;42.05;27.35;;;9.50;1.00;;;;;;7354082;19;20078;-61
2022/03/17 08:49:43;;;;;;;47.60;29.92;;;9.60;1.00;;;;;;7368793;19;20010;-62
2022/03/17 08:52:13;;;;;;;45.97;29.55;;;9.70;1.00;;;;;;7388494;19;20013;-62
2022/03/17 08:54:44;;;;;;;47.03;29.75;;;9.70;1.00;;;;;;7362039;19;20034;-61
2022/03/17 08:57:16;;;;;;;47.30;30.77;;;9.70;1.00;;;;;;7365827;19;20009;-62
2022/03/17 08:59:46;;;;;;;51.10;30.27;;;9.80;1.00;;;;;;7367766;19;20102;-62
2022/03/17 09:02:16;;;;;;;50.58;31.20;;;9.80;1.00;;;;;;7366003;19;20006;-61
2022/03/17 09:04:46;;;;;;;46.33;28.67;;;9.80;1.00;;;;;;7361768;19;20379;-62
2022/03/17 09:07:16;;;;;;;50.70;30.30;;;9.80;1.00;;;;;;7389759;19;20016;-62
2022/03/17 09:09:46;;;;;;;48.22;30.65;;;9.80;1.00;;;;;;7367767;19;20672;-62
2022/03/17 09:12:18;;;;;;;45.97;29.95;;;9.80;1.00;;;;;;7365096;19;20015;-62
2022/03/17 09:14:48;;;;;;;49.13;29.77;;;10.00;1.00;;;;;;7361998;19;20015;-62
2022/03/17 09:17:18;;;;;;;49.05;29.88;;;10.00;1.00;;;;;;7367892;19;20145;-62
2022/03/17 09:19:48;;;;;;;48.75;30.65;;;10.10;1.00;;;;;;7368625;19;20082;-62
2022/03/17 09:22:17;;;;;;;47.38;31.08;;;10.00;1.00;;;;;;7387934;19;20325;-62
2022/03/17 09:24:48;;;;;;;52.83;29.98;;;10.20;1.00;;;;;;7360039;19;20015;-62
2022/03/17 09:27:22;;;;;;;46.30;30.17;;;10.20;1.00;;;;;;7366523;19;20006;-61
2022/03/17 09:29:52;;;;;;;53.15;31.00;;;10.40;1.00;;;;;;7368315;19;20011;-62
2022/03/17 09:32:24;;;;;;;49.25;31.58;;;10.50;1.00;;;;;;7364030;19;20015;-62
2022/03/17 09:34:54;;;;;;;46.60;30.63;;;10.60;1.00;;;;;;7361756;19;20014;-62
2022/03/17 09:37:24;;;;;;;45.10;29.27;;;10.70;1.00;;;;;;7387623;19;20014;-62
2022/03/17 09:39:54;;;;;;;48.33;31.08;;;10.60;1.00;;;;;;7367592;19;20011;-62
2022/03/17 09:42:26;;;;;;;49.33;30.02;;;10.70;1.00;;;;;;7363594;19;20565;-61
2022/03/17 09:44:56;;;;;;;49.03;28.10;;;10.70;1.00;;;;;;7361754;19;20077;-62
2022/03/17 09:47:27;;;;;;;76.82;46.20;;;10.90;1.00;;;;;;7366379;19;20010;-62
2022/03/17 09:49:59;;;;;;;52.45;31.17;;;10.80;1.00;;;;;;7367101;19;20631;-62
2022/03/17 09:52:31;;;;;;;48.90;31.10;;;10.90;1.00;;;;;;7364103;19;20034;-62
2022/03/17 09:55:01;;;;;;;49.00;30.75;;;11.00;1.00;;;;;;7382100;19;20011;-63
2022/03/17 09:57:34;;;;;;;46.13;29.83;;;11.10;1.00;;;;;;7362444;19;20010;-62
2022/03/17 10:00:04;;;;;;;45.90;30.23;;;11.00;1.00;;;;;;7365510;19;20035;-62
2022/03/17 10:02:34;;;;;;;45.58;30.02;;;11.00;1.00;;;;;;7364506;19;20081;-62
2022/03/17 10:05:04;;;;;;;56.38;33.97;;;11.00;1.00;;;;;;7361107;19;20015;-63
2022/03/17 10:07:35;;;;;;;45.17;30.02;;;11.30;1.00;;;;;;7366538;19;20060;-62
2022/03/17 10:10:06;;;;;;;50.00;31.02;;;11.20;1.00;;;;;;7388918;19;20086;-62
2022/03/17 10:12:39;;;;;;;48.45;30.17;;;11.10;1.00;;;;;;7362734;19;20010;-61
2022/03/17 10:15:20;;;;;;;47.05;31.70;;;10.90;1.00;;;;;;7359551;19;20011;-61
2022/03/17 10:17:50;;;;;;;47.20;30.45;;;11.10;1.00;;;;;;7364308;19;20018;-62
2022/03/17 10:20:22;;;;;;;49.88;30.38;;;11.20;1.00;;;;;;7364762;19;20007;-63
2022/03/17 10:22:55;;;;;;;53.80;31.77;;;11.30;1.00;;;;;;7363199;19;20098;-61
2022/03/17 10:25:25;;;;;;;44.58;30.30;;;11.20;1.00;;;;;;7379110;19;20021;-61
2022/03/17 10:27:58;;;;;;;42.95;28.92;;;11.10;1.00;;;;;;7363458;19;20010;-62
2022/03/17 10:30:33;;;;;;;45.92;30.08;;;10.80;1.00;;;;;;7364266;19;20090;-61
2022/03/17 10:33:08;;;;;;;49.55;29.33;;;11.10;1.00;;;;;;7362969;19;20021;-63
2022/03/17 10:35:45;;;;;;;45.55;30.52;;;11.20;1.00;;;;;;7357707;19;20090;-61
2022/03/17 10:38:17;;;;;;;45.35;30.13;;;11.00;1.00;;;;;;7363437;19;20569;-62
2022/03/17 10:41:01;;;;;;;45.38;29.17;;;11.20;1.00;;;;;;7365138;19;20055;-61
2022/03/17 10:43:34;;;;;;;49.70;30.02;;;11.30;1.00;;;;;;7361677;19;20050;-62
2022/03/17 10:46:08;;;;;;;37.72;27.92;;;11.40;1.00;;;;;;7380835;19;20010;-61
2022/03/17 10:48:55;;;;;;;46.50;29.08;;;11.20;1.00;;;;;;7363252;19;20022;-61
2022/03/17 10:51:35;;;;;;;58.45;29.40;;;11.30;1.00;;;;;;7364832;19;20022;-62
2022/03/17 10:54:07;;;;;;;44.20;30.00;;;11.30;1.00;;;;;;7358665;19;20415;-62
2022/03/17 10:56:41;;;;;;;42.25;29.27;;;11.40;1.00;;;;;;7361412;19;20007;-63
2022/03/17 10:59:19;;;;;;;44.80;29.40;;;11.30;1.00;;;;;;7363285;19;20522;-62
2022/03/17 11:01:50;;;;;;;44.05;29.83;;;11.30;1.00;;;;;;7364612;19;20111;-60
2022/03/17 11:04:21;;;;;;;49.95;29.30;;;11.50;1.00;;;;;;7378419;19;20021;-63
2022/03/17 11:06:54;;;;;;;45.03;29.52;;;11.40;1.00;;;;;;7364230;19;20035;-61
2022/03/17 11:09:25;;;;;;;48.67;28.77;;;11.40;1.00;;;;;;7359825;19;20078;-62
2022/03/17 11:11:55;;;;;;;47.95;29.67;;;11.30;1.00;;;;;;7363833;19;20027;-62
2022/03/17 11:14:28;;;;;;;45.35;28.70;;;11.30;1.00;;;;;;7355918;19;20002;-62
2022/03/17 11:17:01;;;;;;;48.42;28.55;;;11.30;1.00;;;;;;7364913;19;20045;-62
2022/03/17 11:19:31;;;;;;;42.95;28.77;;;11.30;1.00;;;;;;7361449;19;20095;-62
2022/03/17 11:22:09;;;;;;;47.70;28.85;;;11.40;1.00;;;;;;7385573;19;20010;-62
2022/03/17 11:24:40;;;;;;;40.80;28.15;;;11.50;1.00;;;;;;7355534;19;20017;-61
2022/03/17 11:27:12;;;;;;;46.53;30.08;;;11.40;1.00;;;;;;7363098;19;20061;-62
2022/03/17 11:29:47;;;;;;;42.22;28.10;;;11.30;1.00;;;;;;7363098;19;20086;-62
2022/03/17 11:32:29;;;;;;;43.58;28.65;;;11.40;1.00;;;;;;7360451;19;20010;-62
2022/03/17 11:35:18;;;;;;;44.85;28.15;;;11.30;1.00;;;;;;7356123;19;20023;-62
2022/03/17 11:37:50;;;;;;;51.65;29.75;;;11.10;1.00;;;;;;7362977;19;20117;-62
2022/03/17 11:40:21;;;;;;;48.25;30.67;;;11.10;1.00;;;;;;7384766;19;20497;-61
2022/03/17 11:43:07;;;;;;;45.67;30.23;;;11.20;1.00;;;;;;7359185;19;20042;-62
2022/03/17 11:45:41;;;;;;;48.38;29.75;;;11.10;1.00;;;;;;7356666;19;20003;-62
2022/03/17 11:48:14;;;;;;;46.50;30.00;;;11.00;1.00;;;;;;7361164;19;20006;-62
2022/03/17 11:50:48;;;;;;;46.63;29.45;;;11.00;1.00;;;;;;7362376;19;20043;-62
2022/03/17 11:53:41;;;;;;;44.67;29.77;;;11.10;1.00;;;;;;7359669;19;20018;-62
2022/03/17 11:56:34;;;;;;;49.97;30.38;;;10.90;1.00;;;;;;7357306;19;20010;-61
2022/03/17 11:59:05;;;;;;;51.33;30.95;;;11.10;1.00;;;;;;7360703;19;20010;-62
2022/03/17 12:01:43;;;;;;;48.13;29.67;;;11.20;1.00;;;;;;7363220;19;20078;-61
2022/03/17 12:04:28;;;;;;;49.05;30.05;;;11.10;1.00;;;;;;7376704;19;20018;-61
2022/03/17 12:07:09;;;;;;;43.90;29.48;;;11.20;1.00;;;;;;7361682;19;20017;-62
2022/03/17 12:09:40;;;;;;;45.60;30.30;;;11.20;1.00;;;;;;7360555;19;20018;-62
2022/03/17 12:12:22;;;;;;;45.85;29.48;;;11.20;1.00;;;;;;7358072;19;20015;-62
2022/03/17 12:14:54;;;;;;;48.65;32.05;;;11.30;1.00;;;;;;7353803;19;20019;-61
2022/03/17 12:17:29;;;;;;;50.28;31.58;;;11.30;1.00;;;;;;7362009;19;20405;-61
2022/03/17 12:20:14;;;;;;;;;;;11.30;1.00;;;;;;7358775;19;20025;-61
2022/03/17 12:22:47;;;;;;;44.70;30.13;;;11.20;1.00;;;;;;7366499;19;19925;-63
2022/03/17 12:25:20;;;;;;;51.05;29.02;;;11.10;1.00;;;;;;7381824;19;20010;-62
2022/03/17 12:27:55;;;;;;;44.25;30.50;;;11.20;1.00;;;;;;7366734;19;20036;-62
2022/03/17 12:30:28;;;;;;;46.08;30.45;;;11.20;1.00;;;;;;7366548;19;20024;-61
2022/03/17 12:33:06;;;;;;;47.85;29.60;;;11.20;1.00;;;;;;7365324;19;20016;-62
2022/03/17 12:36:05;;;;;;;44.85;29.95;;;11.00;1.00;;;;;;7362808;19;20014;-63
2022/03/17 12:38:37;;;;;;;45.17;29.40;;;11.00;1.00;;;;;;7367284;19;20010;-61
2022/03/17 12:41:13;;;;;;;47.58;27.83;;;11.30;1.00;;;;;;7366991;19;20078;-61
2022/03/17 12:43:44;;;;;;;43.75;27.42;;;11.30;1.00;;;;;;7364698;19;20039;-62
2022/03/17 12:46:15;;;;;;;49.17;30.13;;;11.30;1.00;;;;;;7384207;19;20039;-62
2022/03/17 12:48:48;;;;;;;44.13;28.60;;;11.20;1.00;;;;;;7364934;19;20102;-63
2022/03/17 12:51:21;;;;;;;44.17;28.42;;;11.10;1.00;;;;;;7366945;19;20444;-62
2022/03/17 12:53:51;;;;;;;43.45;27.80;;;11.30;1.00;;;;;;7364047;19;20387;-61
2022/03/17 12:56:21;;;;;;;45.92;29.38;;;11.40;1.00;;;;;;7360990;19;20786;-62
2022/03/17 12:58:51;;;;;;;45.50;28.95;;;11.20;1.00;;;;;;7365446;19;20540;-62
2022/03/17 13:01:23;;;;;;;43.22;29.63;;;11.10;1.00;;;;;;7389789;19;20013;-62
2022/03/17 13:03:57;;;;;;;49.60;29.52;;;11.20;1.00;;;;;;7364010;19;20519;-62
2022/03/17 13:09:16;;;;;;;43.92;28.40;;;11.20;1.00;;;;;;7365879;19;20431;-63
2022/03/17 13:14:32;;;;;;;44.17;30.15;;;11.10;1.00;;;;;;7360503;19;20117;-62
2022/03/17 13:17:03;;;;;;;44.10;28.20;;;11.20;1.00;;;;;;7364408;19;20035;-61
2022/03/17 13:19:45;;;;;;;46.97;28.58;;;11.00;1.00;;;;;;7365420;19;20036;-60
2022/03/17 13:22:15;;;;;;;45.38;29.38;;;11.00;1.00;;;;;;7385509;19;20022;-61
2022/03/17 13:24:45;;;;;;;44.35;29.80;;;10.90;1.00;;;;;;7359214;19;20095;-61